sensor_id;sensor_type;location;lat;lon;timestamp;P1;durP1;ratioP1;P2;durP2;ratioP2
8331;SDS011;4203;48.144;14.118;2023-08-20T00:01:34;7.88;;;7.07;;
8331;SDS011;4203;48.144;14.118;2023-08-20T00:04:03;7.32;;;6.72;;
8331;SDS011;4203;48.144;14.118;2023-08-20T00:06:31;8.52;;;6.80;;
8331;SDS011;4203;48.144;14.118;2023-08-20T00:08:59;7.78;;;7.07;;
8331;SDS011;4203;48.144;14.118;2023-08-20T00:11:26;8.80;;;7.50;;
8331;SDS011;4203;48.144;14.118;2023-08-20T00:13:53;7.80;;;7.10;;
8331;SDS011;4203;48.144;14.118;2023-08-20T00:16:20;7.68;;;6.97;;
8331;SDS011;4203;48.144;14.118;2023-08-20T00:18:48;7.55;;;6.88;;
8331;SDS011;4203;48.144;14.118;2023-08-20T00:21:18;8.10;;;7.30;;
8331;SDS011;4203;48.144;14.118;2023-08-20T00:23:45;8.02;;;7.30;;
8331;SDS011;4203;48.144;14.118;2023-08-20T00:26:13;7.10;;;6.50;;
8331;SDS011;4203;48.144;14.118;2023-08-20T00:28:41;8.30;;;6.68;;
8331;SDS011;4203;48.144;14.118;2023-08-20T00:31:08;7.90;;;7.20;;
8331;SDS011;4203;48.144;14.118;2023-08-20T00:33:35;9.20;;;7.57;;
8331;SDS011;4203;48.144;14.118;2023-08-20T00:36:03;7.88;;;7.05;;
8331;SDS011;4203;48.144;14.118;2023-08-20T00:38:31;7.90;;;7.10;;
8331;SDS011;4203;48.144;14.118;2023-08-20T00:40:58;7.30;;;6.60;;
8331;SDS011;4203;48.144;14.118;2023-08-20T00:43:26;7.45;;;6.85;;
8331;SDS011;4203;48.144;14.118;2023-08-20T00:45:53;7.10;;;6.50;;
8331;SDS011;4203;48.144;14.118;2023-08-20T00:48:20;8.35;;;7.55;;
8331;SDS011;4203;48.144;14.118;2023-08-20T00:50:47;7.15;;;6.55;;
8331;SDS011;4203;48.144;14.118;2023-08-20T00:53:17;7.93;;;7.13;;
8331;SDS011;4203;48.144;14.118;2023-08-20T00:55:45;7.65;;;6.95;;
8331;SDS011;4203;48.144;14.118;2023-08-20T00:58:13;9.32;;;7.40;;
8331;SDS011;4203;48.144;14.118;2023-08-20T01:00:41;7.38;;;6.68;;
8331;SDS011;4203;48.144;14.118;2023-08-20T01:03:08;8.68;;;7.38;;
8331;SDS011;4203;48.144;14.118;2023-08-20T01:05:37;8.10;;;7.40;;
8331;SDS011;4203;48.144;14.118;2023-08-20T01:08:21;8.02;;;7.32;;
8331;SDS011;4203;48.144;14.118;2023-08-20T01:10:57;7.70;;;7.00;;
8331;SDS011;4203;48.144;14.118;2023-08-20T01:13:29;7.68;;;6.97;;
8331;SDS011;4203;48.144;14.118;2023-08-20T01:15:56;7.97;;;7.05;;
8331;SDS011;4203;48.144;14.118;2023-08-20T01:18:23;8.32;;;7.18;;
8331;SDS011;4203;48.144;14.118;2023-08-20T01:20:51;8.45;;;7.75;;
8331;SDS011;4203;48.144;14.118;2023-08-20T01:29:36;8.80;;;7.90;;
8331;SDS011;4203;48.144;14.118;2023-08-20T01:32:05;8.25;;;7.45;;
8331;SDS011;4203;48.144;14.118;2023-08-20T01:34:33;8.65;;;7.78;;
8331;SDS011;4203;48.144;14.118;2023-08-20T01:37:00;9.23;;;7.53;;
8331;SDS011;4203;48.144;14.118;2023-08-20T01:39:28;10.48;;;7.72;;
8331;SDS011;4203;48.144;14.118;2023-08-20T01:41:55;8.40;;;7.57;;
8331;SDS011;4203;48.144;14.118;2023-08-20T01:44:23;8.70;;;7.90;;
8331;SDS011;4203;48.144;14.118;2023-08-20T01:46:51;8.07;;;7.00;;
8331;SDS011;4203;48.144;14.118;2023-08-20T01:49:19;7.82;;;7.07;;
8331;SDS011;4203;48.144;14.118;2023-08-20T01:51:46;7.70;;;7.03;;
8331;SDS011;4203;48.144;14.118;2023-08-20T01:54:13;8.05;;;7.18;;
8331;SDS011;4203;48.144;14.118;2023-08-20T01:56:40;12.35;;;7.45;;
8331;SDS011;4203;48.144;14.118;2023-08-20T01:59:07;8.05;;;7.25;;
8331;SDS011;4203;48.144;14.118;2023-08-20T02:01:35;7.88;;;7.18;;
8331;SDS011;4203;48.144;14.118;2023-08-20T02:04:04;7.97;;;7.13;;
8331;SDS011;4203;48.144;14.118;2023-08-20T02:06:31;7.43;;;6.82;;
8331;SDS011;4203;48.144;14.118;2023-08-20T02:08:58;9.40;;;7.60;;
8331;SDS011;4203;48.144;14.118;2023-08-20T02:11:25;8.40;;;7.65;;
8331;SDS011;4203;48.144;14.118;2023-08-20T02:13:52;8.20;;;6.93;;
8331;SDS011;4203;48.144;14.118;2023-08-20T02:16:19;7.85;;;7.15;;
8331;SDS011;4203;48.144;14.118;2023-08-20T02:18:47;7.30;;;6.70;;
8331;SDS011;4203;48.144;14.118;2023-08-20T02:21:15;8.73;;;7.93;;
8331;SDS011;4203;48.144;14.118;2023-08-20T02:23:44;8.05;;;7.35;;
8331;SDS011;4203;48.144;14.118;2023-08-20T02:26:11;7.85;;;7.00;;
8331;SDS011;4203;48.144;14.118;2023-08-20T02:28:38;7.82;;;7.15;;
8331;SDS011;4203;48.144;14.118;2023-08-20T02:31:05;7.40;;;6.65;;
8331;SDS011;4203;48.144;14.118;2023-08-20T02:33:34;7.78;;;7.07;;
8331;SDS011;4203;48.144;14.118;2023-08-20T02:36:02;8.18;;;7.10;;
8331;SDS011;4203;48.144;14.118;2023-08-20T02:38:31;8.15;;;7.35;;
8331;SDS011;4203;48.144;14.118;2023-08-20T02:40:58;9.02;;;8.13;;
8331;SDS011;4203;48.144;14.118;2023-08-20T02:43:25;9.13;;;8.32;;
8331;SDS011;4203;48.144;14.118;2023-08-20T02:45:52;8.43;;;7.53;;
8331;SDS011;4203;48.144;14.118;2023-08-20T02:48:20;8.43;;;7.63;;
8331;SDS011;4203;48.144;14.118;2023-08-20T02:50:51;8.27;;;7.50;;
8331;SDS011;4203;48.144;14.118;2023-08-20T02:53:19;8.27;;;7.50;;
8331;SDS011;4203;48.144;14.118;2023-08-20T02:55:48;7.57;;;6.88;;
8331;SDS011;4203;48.144;14.118;2023-08-20T02:58:15;8.63;;;7.80;;
8331;SDS011;4203;48.144;14.118;2023-08-20T03:00:42;11.38;;;7.72;;
8331;SDS011;4203;48.144;14.118;2023-08-20T03:03:10;7.35;;;6.70;;
8331;SDS011;4203;48.144;14.118;2023-08-20T03:05:37;7.45;;;6.85;;
8331;SDS011;4203;48.144;14.118;2023-08-20T03:08:05;7.85;;;7.25;;
8331;SDS011;4203;48.144;14.118;2023-08-20T03:10:34;9.38;;;8.48;;
8331;SDS011;4203;48.144;14.118;2023-08-20T03:13:02;8.13;;;7.32;;
8331;SDS011;4203;48.144;14.118;2023-08-20T03:15:30;8.13;;;7.30;;
8331;SDS011;4203;48.144;14.118;2023-08-20T03:17:58;8.00;;;7.07;;
8331;SDS011;4203;48.144;14.118;2023-08-20T03:20:25;8.95;;;7.45;;
8331;SDS011;4203;48.144;14.118;2023-08-20T03:22:53;8.43;;;7.63;;
8331;SDS011;4203;48.144;14.118;2023-08-20T03:25:20;8.73;;;7.53;;
8331;SDS011;4203;48.144;14.118;2023-08-20T03:27:47;8.18;;;7.47;;
8331;SDS011;4203;48.144;14.118;2023-08-20T03:30:17;7.47;;;6.85;;
8331;SDS011;4203;48.144;14.118;2023-08-20T03:32:44;8.10;;;7.38;;
8331;SDS011;4203;48.144;14.118;2023-08-20T03:35:11;8.43;;;7.65;;
8331;SDS011;4203;48.144;14.118;2023-08-20T03:37:38;8.65;;;7.50;;
8331;SDS011;4203;48.144;14.118;2023-08-20T03:40:06;8.63;;;7.82;;
8331;SDS011;4203;48.144;14.118;2023-08-20T03:42:34;8.73;;;7.75;;
8331;SDS011;4203;48.144;14.118;2023-08-20T03:45:01;8.35;;;7.55;;
8331;SDS011;4203;48.144;14.118;2023-08-20T03:47:30;9.45;;;7.80;;
8331;SDS011;4203;48.144;14.118;2023-08-20T03:49:57;8.80;;;7.90;;
8331;SDS011;4203;48.144;14.118;2023-08-20T03:52:24;7.72;;;6.93;;
8331;SDS011;4203;48.144;14.118;2023-08-20T03:54:51;7.47;;;6.78;;
8331;SDS011;4203;48.144;14.118;2023-08-20T03:57:18;9.35;;;7.00;;
8331;SDS011;4203;48.144;14.118;2023-08-20T03:59:45;7.90;;;7.10;;
8331;SDS011;4203;48.144;14.118;2023-08-20T04:02:13;9.40;;;7.90;;
8331;SDS011;4203;48.144;14.118;2023-08-20T04:04:41;8.70;;;7.53;;
8331;SDS011;4203;48.144;14.118;2023-08-20T04:07:09;10.88;;;8.18;;
8331;SDS011;4203;48.144;14.118;2023-08-20T04:09:36;10.65;;;8.95;;
8331;SDS011;4203;48.144;14.118;2023-08-20T04:12:03;10.90;;;8.98;;
8331;SDS011;4203;48.144;14.118;2023-08-20T04:14:31;9.85;;;8.00;;
8331;SDS011;4203;48.144;14.118;2023-08-20T04:16:58;9.00;;;8.18;;
8331;SDS011;4203;48.144;14.118;2023-08-20T04:19:26;7.90;;;7.18;;
8331;SDS011;4203;48.144;14.118;2023-08-20T04:21:54;8.45;;;7.60;;
8331;SDS011;4203;48.144;14.118;2023-08-20T04:24:22;9.18;;;8.07;;
8331;SDS011;4203;48.144;14.118;2023-08-20T04:26:49;8.50;;;7.70;;
8331;SDS011;4203;48.144;14.118;2023-08-20T04:29:16;9.00;;;7.85;;
8331;SDS011;4203;48.144;14.118;2023-08-20T04:31:44;8.18;;;7.38;;
8331;SDS011;4203;48.144;14.118;2023-08-20T04:34:18;8.75;;;7.95;;
8331;SDS011;4203;48.144;14.118;2023-08-20T04:36:46;7.85;;;7.15;;
8331;SDS011;4203;48.144;14.118;2023-08-20T04:39:14;9.45;;;8.48;;
8331;SDS011;4203;48.144;14.118;2023-08-20T04:41:42;9.30;;;8.48;;
8331;SDS011;4203;48.144;14.118;2023-08-20T04:44:09;9.52;;;8.25;;
8331;SDS011;4203;48.144;14.118;2023-08-20T04:46:36;9.27;;;8.15;;
8331;SDS011;4203;48.144;14.118;2023-08-20T04:49:03;8.80;;;7.82;;
8331;SDS011;4203;48.144;14.118;2023-08-20T04:51:31;12.90;;;8.95;;
8331;SDS011;4203;48.144;14.118;2023-08-20T04:53:58;10.85;;;8.85;;
8331;SDS011;4203;48.144;14.118;2023-08-20T04:56:26;10.15;;;8.13;;
8331;SDS011;4203;48.144;14.118;2023-08-20T04:58:54;10.60;;;8.27;;
8331;SDS011;4203;48.144;14.118;2023-08-20T05:01:21;9.38;;;8.48;;
8331;SDS011;4203;48.144;14.118;2023-08-20T05:03:49;11.45;;;9.30;;
8331;SDS011;4203;48.144;14.118;2023-08-20T05:06:16;11.57;;;8.68;;
8331;SDS011;4203;48.144;14.118;2023-08-20T05:08:43;9.85;;;8.88;;
8331;SDS011;4203;48.144;14.118;2023-08-20T05:11:10;10.48;;;9.48;;
8331;SDS011;4203;48.144;14.118;2023-08-20T05:13:39;10.80;;;8.73;;
8331;SDS011;4203;48.144;14.118;2023-08-20T05:16:06;9.57;;;8.65;;
8331;SDS011;4203;48.144;14.118;2023-08-20T05:18:33;9.90;;;9.00;;
8331;SDS011;4203;48.144;14.118;2023-08-20T05:21:00;10.15;;;8.95;;
8331;SDS011;4203;48.144;14.118;2023-08-20T05:23:27;10.50;;;9.38;;
8331;SDS011;4203;48.144;14.118;2023-08-20T05:25:55;10.35;;;9.35;;
8331;SDS011;4203;48.144;14.118;2023-08-20T05:28:22;10.13;;;9.18;;
8331;SDS011;4203;48.144;14.118;2023-08-20T05:30:55;9.05;;;8.20;;
8331;SDS011;4203;48.144;14.118;2023-08-20T05:35:54;8.55;;;7.65;;
8331;SDS011;4203;48.144;14.118;2023-08-20T05:38:21;9.60;;;8.70;;
8331;SDS011;4203;48.144;14.118;2023-08-20T05:40:49;11.07;;;8.90;;
8331;SDS011;4203;48.144;14.118;2023-08-20T05:43:18;9.18;;;8.27;;
8331;SDS011;4203;48.144;14.118;2023-08-20T05:45:45;9.52;;;8.63;;
8331;SDS011;4203;48.144;14.118;2023-08-20T05:48:13;8.48;;;7.72;;
8331;SDS011;4203;48.144;14.118;2023-08-20T05:50:41;9.80;;;8.90;;
8331;SDS011;4203;48.144;14.118;2023-08-20T05:53:08;8.10;;;7.10;;
8331;SDS011;4203;48.144;14.118;2023-08-20T05:55:35;8.00;;;7.20;;
8331;SDS011;4203;48.144;14.118;2023-08-20T05:58:02;7.13;;;6.53;;
8331;SDS011;4203;48.144;14.118;2023-08-20T06:00:30;8.80;;;7.38;;
8331;SDS011;4203;48.144;14.118;2023-08-20T06:02:57;9.55;;;8.48;;
8331;SDS011;4203;48.144;14.118;2023-08-20T06:05:25;8.35;;;7.65;;
8331;SDS011;4203;48.144;14.118;2023-08-20T06:07:53;8.80;;;8.00;;
8331;SDS011;4203;48.144;14.118;2023-08-20T06:10:20;8.30;;;7.50;;
8331;SDS011;4203;48.144;14.118;2023-08-20T06:12:47;8.52;;;7.82;;
8331;SDS011;4203;48.144;14.118;2023-08-20T06:15:14;9.45;;;8.50;;
8331;SDS011;4203;48.144;14.118;2023-08-20T06:17:41;7.85;;;7.15;;
8331;SDS011;4203;48.144;14.118;2023-08-20T06:20:09;8.15;;;7.35;;
8331;SDS011;4203;48.144;14.118;2023-08-20T06:22:38;8.30;;;7.25;;
8331;SDS011;4203;48.144;14.118;2023-08-20T06:25:07;7.30;;;6.70;;
8331;SDS011;4203;48.144;14.118;2023-08-20T06:27:34;7.93;;;7.22;;
8331;SDS011;4203;48.144;14.118;2023-08-20T06:30:01;7.60;;;6.90;;
8331;SDS011;4203;48.144;14.118;2023-08-20T06:32:29;8.02;;;7.32;;
8331;SDS011;4203;48.144;14.118;2023-08-20T06:34:56;7.70;;;7.00;;
8331;SDS011;4203;48.144;14.118;2023-08-20T06:37:23;8.38;;;7.35;;
8331;SDS011;4203;48.144;14.118;2023-08-20T06:39:52;8.27;;;7.53;;
8331;SDS011;4203;48.144;14.118;2023-08-20T06:42:19;9.70;;;8.70;;
8331;SDS011;4203;48.144;14.118;2023-08-20T06:44:46;8.45;;;7.65;;
8331;SDS011;4203;48.144;14.118;2023-08-20T06:47:13;9.02;;;8.30;;
8331;SDS011;4203;48.144;14.118;2023-08-20T06:49:40;10.60;;;8.32;;
8331;SDS011;4203;48.144;14.118;2023-08-20T06:52:08;10.13;;;9.13;;
8331;SDS011;4203;48.144;14.118;2023-08-20T06:54:37;9.20;;;8.32;;
8331;SDS011;4203;48.144;14.118;2023-08-20T06:57:06;10.02;;;9.07;;
8331;SDS011;4203;48.144;14.118;2023-08-20T06:59:33;9.45;;;8.57;;
8331;SDS011;4203;48.144;14.118;2023-08-20T07:02:00;9.70;;;8.15;;
8331;SDS011;4203;48.144;14.118;2023-08-20T07:04:28;10.60;;;9.60;;
8331;SDS011;4203;48.144;14.118;2023-08-20T07:06:55;9.05;;;8.25;;
8331;SDS011;4203;48.144;14.118;2023-08-20T07:09:23;9.35;;;8.48;;
8331;SDS011;4203;48.144;14.118;2023-08-20T07:11:50;10.18;;;9.25;;
8331;SDS011;4203;48.144;14.118;2023-08-20T07:14:19;9.75;;;8.85;;
8331;SDS011;4203;48.144;14.118;2023-08-20T07:16:46;9.00;;;8.27;;
8331;SDS011;4203;48.144;14.118;2023-08-20T07:19:13;10.52;;;9.60;;
8331;SDS011;4203;48.144;14.118;2023-08-20T07:21:40;10.40;;;9.38;;
8331;SDS011;4203;48.144;14.118;2023-08-20T07:24:08;11.07;;;10.00;;
8331;SDS011;4203;48.144;14.118;2023-08-20T07:26:35;11.07;;;10.15;;
8331;SDS011;4203;48.144;14.118;2023-08-20T07:29:02;9.98;;;9.00;;
8331;SDS011;4203;48.144;14.118;2023-08-20T07:31:31;10.40;;;9.43;;
8331;SDS011;4203;48.144;14.118;2023-08-20T07:34:00;10.60;;;9.60;;
8331;SDS011;4203;48.144;14.118;2023-08-20T07:36:29;11.18;;;10.18;;
8331;SDS011;4203;48.144;14.118;2023-08-20T07:38:56;11.98;;;10.80;;
8331;SDS011;4203;48.144;14.118;2023-08-20T07:41:23;12.15;;;10.85;;
8331;SDS011;4203;48.144;14.118;2023-08-20T07:43:51;12.10;;;10.90;;
8331;SDS011;4203;48.144;14.118;2023-08-20T07:46:18;13.60;;;12.18;;
8331;SDS011;4203;48.144;14.118;2023-08-20T07:48:47;12.10;;;10.90;;
8331;SDS011;4203;48.144;14.118;2023-08-20T07:51:14;13.25;;;11.90;;
8331;SDS011;4203;48.144;14.118;2023-08-20T07:53:43;12.48;;;11.27;;
8331;SDS011;4203;48.144;14.118;2023-08-20T07:56:11;12.70;;;11.52;;
8331;SDS011;4203;48.144;14.118;2023-08-20T07:58:38;12.60;;;11.40;;
8331;SDS011;4203;48.144;14.118;2023-08-20T08:01:05;12.35;;;11.05;;
8331;SDS011;4203;48.144;14.118;2023-08-20T08:03:33;13.07;;;10.70;;
8331;SDS011;4203;48.144;14.118;2023-08-20T08:06:02;12.38;;;11.13;;
8331;SDS011;4203;48.144;14.118;2023-08-20T08:08:29;12.43;;;11.23;;
8331;SDS011;4203;48.144;14.118;2023-08-20T08:10:56;13.05;;;11.63;;
8331;SDS011;4203;48.144;14.118;2023-08-20T08:13:24;12.90;;;11.60;;
8331;SDS011;4203;48.144;14.118;2023-08-20T08:15:51;11.63;;;10.30;;
8331;SDS011;4203;48.144;14.118;2023-08-20T08:18:19;11.10;;;10.07;;
8331;SDS011;4203;48.144;14.118;2023-08-20T08:20:46;10.43;;;9.40;;
8331;SDS011;4203;48.144;14.118;2023-08-20T08:23:15;15.10;;;9.75;;
8331;SDS011;4203;48.144;14.118;2023-08-20T08:25:42;9.85;;;9.05;;
8331;SDS011;4203;48.144;14.118;2023-08-20T08:28:09;10.82;;;9.73;;
8331;SDS011;4203;48.144;14.118;2023-08-20T08:30:37;10.55;;;9.50;;
8331;SDS011;4203;48.144;14.118;2023-08-20T08:33:05;10.45;;;9.55;;
8331;SDS011;4203;48.144;14.118;2023-08-20T08:35:32;9.90;;;9.10;;
8331;SDS011;4203;48.144;14.118;2023-08-20T08:37:59;9.98;;;9.07;;
8331;SDS011;4203;48.144;14.118;2023-08-20T08:40:30;11.35;;;10.25;;
8331;SDS011;4203;48.144;14.118;2023-08-20T08:42:57;10.52;;;8.98;;
8331;SDS011;4203;48.144;14.118;2023-08-20T08:45:26;10.75;;;7.95;;
8331;SDS011;4203;48.144;14.118;2023-08-20T08:47:54;8.32;;;7.63;;
8331;SDS011;4203;48.144;14.118;2023-08-20T08:50:21;10.10;;;9.18;;
8331;SDS011;4203;48.144;14.118;2023-08-20T08:52:49;9.38;;;8.55;;
8331;SDS011;4203;48.144;14.118;2023-08-20T08:55:18;9.20;;;8.40;;
8331;SDS011;4203;48.144;14.118;2023-08-20T08:57:47;9.70;;;8.80;;
8331;SDS011;4203;48.144;14.118;2023-08-20T09:00:15;9.50;;;8.60;;
8331;SDS011;4203;48.144;14.118;2023-08-20T09:02:42;8.30;;;7.60;;
8331;SDS011;4203;48.144;14.118;2023-08-20T09:05:09;9.30;;;8.60;;
8331;SDS011;4203;48.144;14.118;2023-08-20T09:07:41;9.00;;;8.20;;
8331;SDS011;4203;48.144;14.118;2023-08-20T09:10:10;8.55;;;7.75;;
8331;SDS011;4203;48.144;14.118;2023-08-20T09:12:37;8.30;;;7.50;;
8331;SDS011;4203;48.144;14.118;2023-08-20T09:15:09;8.60;;;7.68;;
8331;SDS011;4203;48.144;14.118;2023-08-20T09:17:37;9.98;;;7.70;;
8331;SDS011;4203;48.144;14.118;2023-08-20T09:20:04;9.13;;;8.32;;
8331;SDS011;4203;48.144;14.118;2023-08-20T09:22:32;8.52;;;7.82;;
8331;SDS011;4203;48.144;14.118;2023-08-20T09:25:02;9.13;;;8.20;;
8331;SDS011;4203;48.144;14.118;2023-08-20T09:27:30;9.07;;;8.32;;
8331;SDS011;4203;48.144;14.118;2023-08-20T09:30:08;8.75;;;7.90;;
8331;SDS011;4203;48.144;14.118;2023-08-20T09:32:36;9.57;;;8.20;;
8331;SDS011;4203;48.144;14.118;2023-08-20T09:35:03;8.48;;;7.78;;
8331;SDS011;4203;48.144;14.118;2023-08-20T09:37:32;8.32;;;7.72;;
8331;SDS011;4203;48.144;14.118;2023-08-20T09:39:59;8.73;;;7.93;;
8331;SDS011;4203;48.144;14.118;2023-08-20T09:42:27;9.10;;;8.23;;
8331;SDS011;4203;48.144;14.118;2023-08-20T09:44:58;9.60;;;8.25;;
8331;SDS011;4203;48.144;14.118;2023-08-20T09:47:30;9.70;;;8.80;;
8331;SDS011;4203;48.144;14.118;2023-08-20T09:50:02;9.13;;;8.40;;
8331;SDS011;4203;48.144;14.118;2023-08-20T09:52:35;9.43;;;8.52;;
8331;SDS011;4203;48.144;14.118;2023-08-20T09:55:07;9.15;;;8.43;;
8331;SDS011;4203;48.144;14.118;2023-08-20T09:57:36;9.02;;;8.30;;
8331;SDS011;4203;48.144;14.118;2023-08-20T10:00:04;8.65;;;8.05;;
8331;SDS011;4203;48.144;14.118;2023-08-20T10:02:36;9.93;;;8.98;;
8331;SDS011;4203;48.144;14.118;2023-08-20T10:05:04;8.75;;;8.05;;
8331;SDS011;4203;48.144;14.118;2023-08-20T10:07:33;10.25;;;8.38;;
8331;SDS011;4203;48.144;14.118;2023-08-20T10:10:02;8.75;;;8.00;;
8331;SDS011;4203;48.144;14.118;2023-08-20T10:12:30;8.77;;;8.07;;
8331;SDS011;4203;48.144;14.118;2023-08-20T10:15:00;12.07;;;8.27;;
8331;SDS011;4203;48.144;14.118;2023-08-20T10:17:28;9.45;;;8.55;;
8331;SDS011;4203;48.144;14.118;2023-08-20T10:19:58;9.30;;;8.50;;
8331;SDS011;4203;48.144;14.118;2023-08-20T10:22:32;9.13;;;8.32;;
8331;SDS011;4203;48.144;14.118;2023-08-20T10:25:00;10.80;;;8.30;;
8331;SDS011;4203;48.144;14.118;2023-08-20T10:27:28;9.65;;;8.48;;
8331;SDS011;4203;48.144;14.118;2023-08-20T10:29:58;9.55;;;8.70;;
8331;SDS011;4203;48.144;14.118;2023-08-20T10:35:13;9.35;;;8.27;;
8331;SDS011;4203;48.144;14.118;2023-08-20T10:43:27;9.30;;;8.57;;
8331;SDS011;4203;48.144;14.118;2023-08-20T10:46:04;10.85;;;8.57;;
8331;SDS011;4203;48.144;14.118;2023-08-20T10:48:32;9.98;;;9.18;;
8331;SDS011;4203;48.144;14.118;2023-08-20T10:51:09;9.55;;;8.75;;
8331;SDS011;4203;48.144;14.118;2023-08-20T10:53:38;9.82;;;8.88;;
8331;SDS011;4203;48.144;14.118;2023-08-20T10:56:13;8.80;;;8.10;;
8331;SDS011;4203;48.144;14.118;2023-08-20T10:58:41;8.75;;;8.05;;
8331;SDS011;4203;48.144;14.118;2023-08-20T11:01:13;9.00;;;8.20;;
8331;SDS011;4203;48.144;14.118;2023-08-20T11:03:41;7.28;;;6.68;;
8331;SDS011;4203;48.144;14.118;2023-08-20T11:06:10;8.55;;;7.75;;
8331;SDS011;4203;48.144;14.118;2023-08-20T11:08:38;8.10;;;7.40;;
8331;SDS011;4203;48.144;14.118;2023-08-20T11:11:06;7.72;;;7.13;;
8331;SDS011;4203;48.144;14.118;2023-08-20T11:13:34;8.65;;;6.85;;
8331;SDS011;4203;48.144;14.118;2023-08-20T11:16:02;7.32;;;6.68;;
8331;SDS011;4203;48.144;14.118;2023-08-20T11:18:30;7.85;;;7.25;;
8331;SDS011;4203;48.144;14.118;2023-08-20T11:20:59;7.03;;;6.53;;
8331;SDS011;4203;48.144;14.118;2023-08-20T11:23:28;7.90;;;7.20;;
8331;SDS011;4203;48.144;14.118;2023-08-20T11:25:56;8.57;;;7.47;;
8331;SDS011;4203;48.144;14.118;2023-08-20T11:28:27;8.13;;;7.45;;
8331;SDS011;4203;48.144;14.118;2023-08-20T11:30:54;7.72;;;7.07;;
8331;SDS011;4203;48.144;14.118;2023-08-20T11:33:23;8.70;;;8.00;;
8331;SDS011;4203;48.144;14.118;2023-08-20T11:35:51;7.57;;;6.88;;
8331;SDS011;4203;48.144;14.118;2023-08-20T11:38:20;7.78;;;7.18;;
8331;SDS011;4203;48.144;14.118;2023-08-20T11:40:51;7.00;;;6.20;;
8331;SDS011;4203;48.144;14.118;2023-08-20T11:43:18;7.40;;;6.80;;
8331;SDS011;4203;48.144;14.118;2023-08-20T11:45:46;7.22;;;6.72;;
8331;SDS011;4203;48.144;14.118;2023-08-20T11:48:15;6.75;;;6.25;;
8331;SDS011;4203;48.144;14.118;2023-08-20T11:50:43;6.05;;;5.68;;
8331;SDS011;4203;48.144;14.118;2023-08-20T11:53:10;6.38;;;5.97;;
8331;SDS011;4203;48.144;14.118;2023-08-20T11:55:38;6.93;;;6.32;;
8331;SDS011;4203;48.144;14.118;2023-08-20T11:58:10;6.65;;;6.10;;
8331;SDS011;4203;48.144;14.118;2023-08-20T12:00:38;6.60;;;6.10;;
8331;SDS011;4203;48.144;14.118;2023-08-20T12:03:07;6.82;;;6.32;;
8331;SDS011;4203;48.144;14.118;2023-08-20T12:05:35;6.30;;;5.88;;
8331;SDS011;4203;48.144;14.118;2023-08-20T12:08:02;5.95;;;5.55;;
8331;SDS011;4203;48.144;14.118;2023-08-20T12:10:33;6.15;;;5.65;;
8331;SDS011;4203;48.144;14.118;2023-08-20T12:13:00;6.38;;;5.78;;
8331;SDS011;4203;48.144;14.118;2023-08-20T12:15:34;5.63;;;5.28;;
8331;SDS011;4203;48.144;14.118;2023-08-20T12:18:02;5.60;;;5.25;;
8331;SDS011;4203;48.144;14.118;2023-08-20T12:20:31;5.85;;;5.28;;
8331;SDS011;4203;48.144;14.118;2023-08-20T12:22:59;5.38;;;5.07;;
8331;SDS011;4203;48.144;14.118;2023-08-20T12:25:29;5.45;;;5.00;;
8331;SDS011;4203;48.144;14.118;2023-08-20T12:27:59;5.63;;;5.22;;
8331;SDS011;4203;48.144;14.118;2023-08-20T12:30:26;4.75;;;4.55;;
8331;SDS011;4203;48.144;14.118;2023-08-20T12:32:55;6.05;;;5.47;;
8331;SDS011;4203;48.144;14.118;2023-08-20T12:35:23;5.88;;;5.47;;
8331;SDS011;4203;48.144;14.118;2023-08-20T12:37:50;6.30;;;5.80;;
8331;SDS011;4203;48.144;14.118;2023-08-20T12:40:18;5.20;;;4.80;;
8331;SDS011;4203;48.144;14.118;2023-08-20T12:42:45;5.07;;;4.70;;
8331;SDS011;4203;48.144;14.118;2023-08-20T12:45:12;4.45;;;4.15;;
8331;SDS011;4203;48.144;14.118;2023-08-20T12:47:39;5.25;;;4.95;;
8331;SDS011;4203;48.144;14.118;2023-08-20T12:50:08;5.10;;;4.80;;
8331;SDS011;4203;48.144;14.118;2023-08-20T12:52:38;5.13;;;4.82;;
8331;SDS011;4203;48.144;14.118;2023-08-20T12:55:05;4.97;;;4.68;;
8331;SDS011;4203;48.144;14.118;2023-08-20T12:57:34;4.63;;;4.32;;
8331;SDS011;4203;48.144;14.118;2023-08-20T13:00:02;4.60;;;4.20;;
8331;SDS011;4203;48.144;14.118;2023-08-20T13:02:33;5.18;;;4.63;;
8331;SDS011;4203;48.144;14.118;2023-08-20T13:05:00;5.50;;;5.00;;
8331;SDS011;4203;48.144;14.118;2023-08-20T13:07:30;4.60;;;4.30;;
8331;SDS011;4203;48.144;14.118;2023-08-20T13:09:57;4.63;;;4.32;;
8331;SDS011;4203;48.144;14.118;2023-08-20T13:12:25;5.30;;;4.80;;
8331;SDS011;4203;48.144;14.118;2023-08-20T13:14:55;4.50;;;4.18;;
8331;SDS011;4203;48.144;14.118;2023-08-20T13:17:22;4.45;;;4.25;;
8331;SDS011;4203;48.144;14.118;2023-08-20T13:19:50;4.25;;;3.95;;
8331;SDS011;4203;48.144;14.118;2023-08-20T13:22:17;4.85;;;4.55;;
8331;SDS011;4203;48.144;14.118;2023-08-20T13:24:46;4.47;;;4.18;;
8331;SDS011;4203;48.144;14.118;2023-08-20T13:27:13;4.57;;;4.28;;
8331;SDS011;4203;48.144;14.118;2023-08-20T13:29:40;4.47;;;4.13;;
8331;SDS011;4203;48.144;14.118;2023-08-20T13:32:07;4.40;;;3.95;;
8331;SDS011;4203;48.144;14.118;2023-08-20T13:34:35;4.57;;;4.28;;
8331;SDS011;4203;48.144;14.118;2023-08-20T13:37:02;4.00;;;3.80;;
8331;SDS011;4203;48.144;14.118;2023-08-20T13:39:30;4.20;;;3.90;;
8331;SDS011;4203;48.144;14.118;2023-08-20T13:41:58;3.97;;;3.70;;
8331;SDS011;4203;48.144;14.118;2023-08-20T13:44:25;4.85;;;3.78;;
8331;SDS011;4203;48.144;14.118;2023-08-20T13:46:53;3.35;;;3.05;;
8331;SDS011;4203;48.144;14.118;2023-08-20T13:49:21;4.93;;;3.65;;
8331;SDS011;4203;48.144;14.118;2023-08-20T13:51:48;6.88;;;3.33;;
8331;SDS011;4203;48.144;14.118;2023-08-20T13:54:16;3.97;;;3.58;;
8331;SDS011;4203;48.144;14.118;2023-08-20T13:56:43;3.47;;;3.28;;
8331;SDS011;4203;48.144;14.118;2023-08-20T13:59:12;3.60;;;3.30;;
8331;SDS011;4203;48.144;14.118;2023-08-20T14:01:39;4.35;;;3.33;;
8331;SDS011;4203;48.144;14.118;2023-08-20T14:04:06;3.65;;;3.45;;
8331;SDS011;4203;48.144;14.118;2023-08-20T14:06:34;5.13;;;3.30;;
8331;SDS011;4203;48.144;14.118;2023-08-20T14:09:01;3.30;;;3.10;;
8331;SDS011;4203;48.144;14.118;2023-08-20T14:11:29;3.10;;;2.88;;
8331;SDS011;4203;48.144;14.118;2023-08-20T14:13:57;3.67;;;2.95;;
8331;SDS011;4203;48.144;14.118;2023-08-20T14:16:25;3.50;;;3.30;;
8331;SDS011;4203;48.144;14.118;2023-08-20T14:18:53;3.55;;;3.20;;
8331;SDS011;4203;48.144;14.118;2023-08-20T14:21:20;3.17;;;2.88;;
8331;SDS011;4203;48.144;14.118;2023-08-20T14:23:47;3.25;;;3.05;;
8331;SDS011;4203;48.144;14.118;2023-08-20T14:26:14;3.65;;;3.38;;
8331;SDS011;4203;48.144;14.118;2023-08-20T14:28:42;3.50;;;3.30;;
8331;SDS011;4203;48.144;14.118;2023-08-20T14:31:09;3.55;;;3.35;;
8331;SDS011;4203;48.144;14.118;2023-08-20T14:33:37;3.95;;;3.65;;
8331;SDS011;4203;48.144;14.118;2023-08-20T14:36:04;3.63;;;3.35;;
8331;SDS011;4203;48.144;14.118;2023-08-20T14:38:32;3.50;;;3.30;;
8331;SDS011;4203;48.144;14.118;2023-08-20T14:40:59;4.43;;;3.15;;
8331;SDS011;4203;48.144;14.118;2023-08-20T14:43:27;3.65;;;3.45;;
8331;SDS011;4203;48.144;14.118;2023-08-20T14:45:54;4.03;;;3.67;;
8331;SDS011;4203;48.144;14.118;2023-08-20T14:48:21;4.18;;;3.88;;
8331;SDS011;4203;48.144;14.118;2023-08-20T14:50:50;4.47;;;4.18;;
8331;SDS011;4203;48.144;14.118;2023-08-20T14:53:18;3.90;;;3.70;;
8331;SDS011;4203;48.144;14.118;2023-08-20T14:55:45;4.00;;;3.80;;
8331;SDS011;4203;48.144;14.118;2023-08-20T14:58:12;6.45;;;4.45;;
8331;SDS011;4203;48.144;14.118;2023-08-20T15:00:39;5.05;;;4.75;;
8331;SDS011;4203;48.144;14.118;2023-08-20T15:03:07;4.60;;;4.20;;
8331;SDS011;4203;48.144;14.118;2023-08-20T15:05:34;4.68;;;4.38;;
8331;SDS011;4203;48.144;14.118;2023-08-20T15:08:03;5.95;;;4.63;;
8331;SDS011;4203;48.144;14.118;2023-08-20T15:10:30;4.85;;;4.35;;
8331;SDS011;4203;48.144;14.118;2023-08-20T15:12:57;5.15;;;4.85;;
8331;SDS011;4203;48.144;14.118;2023-08-20T15:15:25;4.20;;;3.97;;
8331;SDS011;4203;48.144;14.118;2023-08-20T15:17:54;4.88;;;4.53;;
8331;SDS011;4203;48.144;14.118;2023-08-20T15:20:21;4.45;;;4.15;;